createdAt,value
2019-06-20T00:00:48.197Z,11.33
2019-06-20T00:03:17.573Z,10.43
2019-06-20T00:05:46.963Z,15.38
2019-06-20T00:08:16.343Z,9.18
2019-06-20T00:10:45.735Z,10.72
2019-06-20T00:13:15.053Z,9.13
2019-06-20T00:15:44.392Z,10.53
2019-06-20T00:18:13.713Z,8.83
2019-06-20T00:20:44.059Z,9.95
2019-06-20T00:23:13.506Z,8.48
2019-06-20T00:25:42.841Z,12.15
2019-06-20T00:28:12.220Z,10.38
2019-06-20T00:30:41.645Z,7.72
2019-06-20T00:33:10.989Z,10.48
2019-06-20T00:35:40.317Z,9.73
2019-06-20T00:38:09.628Z,9.25
2019-06-20T00:40:38.956Z,9.80
2019-06-20T00:43:17.452Z,8.35
2019-06-20T00:45:39.278Z,9.50
2019-06-20T00:48:08.672Z,9.68
2019-06-20T00:50:37.998Z,13.98
2019-06-20T00:53:07.388Z,11.78
2019-06-20T00:55:36.789Z,11.88
2019-06-20T00:58:06.118Z,11.43
2019-06-20T01:00:35.483Z,13.13
2019-06-20T01:03:05.158Z,9.40
2019-06-20T01:05:34.628Z,10.93
2019-06-20T01:08:04.993Z,9.88
2019-06-20T01:10:34.317Z,10.30
2019-06-20T01:13:03.721Z,9.60
2019-06-20T01:15:33.020Z,12.37
2019-06-20T01:18:02.349Z,8.28
2019-06-20T01:20:31.664Z,11.60
2019-06-20T01:23:00.997Z,12.23
2019-06-20T01:25:38.683Z,12.80
2019-06-20T01:28:08.072Z,10.23
2019-06-20T01:30:37.389Z,13.08
2019-06-20T01:33:07.248Z,11.90
2019-06-20T01:35:36.665Z,13.85
2019-06-20T01:38:06.057Z,10.68
2019-06-20T01:40:35.378Z,13.78
2019-06-20T01:43:04.770Z,15.23
2019-06-20T01:45:34.089Z,14.47
2019-06-20T01:48:03.560Z,10.38
2019-06-20T01:50:32.969Z,13.58
2019-06-20T01:53:02.357Z,14.05
2019-06-20T01:55:31.698Z,14.07
2019-06-20T01:58:01.362Z,14.85
2019-06-20T02:00:50.132Z,12.65
2019-06-20T02:03:21.130Z,14.40
2019-06-20T02:05:50.534Z,16.30
2019-06-20T02:08:19.963Z,16.02
2019-06-20T02:10:49.386Z,11.97
2019-06-20T02:13:18.741Z,14.58
2019-06-20T02:15:48.068Z,17.40
2019-06-20T02:18:17.407Z,16.40
2019-06-20T02:20:49.809Z,15.95
2019-06-20T02:23:19.403Z,11.63
2019-06-20T02:25:48.729Z,15.98
2019-06-20T02:28:18.122Z,11.15
2019-06-20T02:30:47.608Z,14.13
2019-06-20T02:33:16.940Z,19.73
2019-06-20T02:35:47.316Z,15.23
2019-06-20T02:38:16.642Z,17.80
2019-06-20T02:40:45.970Z,15.25
2019-06-20T02:43:15.357Z,21.45
2019-06-20T02:45:44.673Z,16.60
2019-06-20T02:48:13.992Z,18.10
2019-06-20T02:50:43.315Z,22.37
2019-06-20T02:53:12.653Z,24.92
2019-06-20T02:55:41.983Z,22.67
2019-06-20T02:58:11.318Z,22.00
2019-06-20T03:00:57.496Z,21.05
2019-06-20T03:03:28.555Z,20.68
2019-06-20T03:05:58.205Z,24.45
2019-06-20T03:08:27.602Z,24.15
2019-06-20T03:10:56.916Z,24.00
2019-06-20T03:13:26.237Z,24.02
2019-06-20T03:15:55.561Z,27.42
2019-06-20T03:18:24.903Z,21.95
2019-06-20T03:20:55.197Z,28.55
2019-06-20T03:23:24.530Z,27.55
2019-06-20T03:25:53.947Z,27.85
2019-06-20T03:28:23.270Z,27.73
2019-06-20T03:30:52.590Z,28.38
2019-06-20T03:33:21.948Z,27.70
2019-06-20T03:35:51.294Z,31.45
2019-06-20T03:38:20.625Z,26.50
2019-06-20T03:40:50.921Z,26.55
2019-06-20T03:43:20.275Z,24.02
2019-06-20T03:45:49.606Z,29.40
2019-06-20T03:48:20.374Z,27.58
2019-06-20T03:50:49.651Z,26.62
2019-06-20T03:53:19.322Z,25.97
2019-06-20T03:55:48.627Z,29.05
2019-06-20T03:58:17.962Z,27.95
2019-06-20T04:00:47.275Z,22.82
2019-06-20T04:03:16.602Z,21.73
2019-06-20T04:05:45.943Z,22.80
2019-06-20T04:08:15.252Z,20.08
2019-06-20T04:10:44.573Z,27.45
2019-06-20T04:13:13.893Z,25.32
2019-06-20T04:15:43.215Z,23.65
2019-06-20T04:18:12.548Z,22.85
2019-06-20T04:20:41.932Z,33.13
2019-06-20T04:23:11.265Z,35.38
2019-06-20T04:25:40.595Z,28.90
2019-06-20T04:28:09.926Z,37.20
2019-06-20T04:30:39.241Z,32.90
2019-06-20T04:33:08.775Z,35.40
2019-06-20T04:35:38.168Z,38.13
2019-06-20T04:38:07.984Z,43.15
2019-06-20T04:40:37.441Z,41.48
2019-06-20T04:43:06.753Z,42.98
2019-06-20T04:45:40.657Z,40.85
2019-06-20T04:48:09.992Z,39.10
2019-06-20T04:50:39.313Z,38.48
2019-06-20T04:53:08.664Z,41.02
2019-06-20T04:55:37.967Z,39.65
2019-06-20T04:58:07.478Z,41.00
2019-06-20T05:00:36.871Z,42.15
2019-06-20T05:03:06.205Z,41.92
2019-06-20T05:05:43.188Z,37.42
2019-06-20T05:08:11.175Z,38.25
2019-06-20T05:10:40.501Z,41.08
2019-06-20T05:13:09.833Z,40.58
2019-06-20T05:15:52.062Z,41.30
2019-06-20T05:18:10.194Z,40.15
2019-06-20T05:20:41.110Z,38.58
2019-06-20T05:23:10.517Z,40.03
2019-06-20T05:25:39.906Z,34.13
2019-06-20T05:28:09.225Z,40.67
2019-06-20T05:30:38.641Z,41.00
2019-06-20T05:33:07.972Z,44.05
2019-06-20T05:35:40.401Z,41.40
2019-06-20T05:38:09.705Z,43.38
2019-06-20T05:40:41.829Z,42.08
2019-06-20T05:43:11.202Z,46.23
2019-06-20T05:45:44.373Z,45.25
2019-06-20T05:48:12.081Z,41.00
2019-06-20T05:50:41.760Z,40.92
2019-06-20T05:53:11.210Z,43.78
2019-06-20T05:55:40.703Z,44.58
2019-06-20T05:58:10.050Z,47.55
2019-06-20T06:00:42.494Z,41.92
2019-06-20T06:03:13.766Z,42.00
2019-06-20T06:06:02.077Z,41.60
2019-06-20T06:08:18.653Z,46.20
2019-06-20T06:10:55.683Z,43.60
2019-06-20T06:13:25.172Z,39.85
2019-06-20T06:15:56.204Z,41.60
2019-06-20T06:18:28.298Z,36.58
2019-06-20T06:20:59.359Z,46.15
2019-06-20T06:23:28.869Z,51.23
2019-06-20T06:25:58.619Z,43.73
2019-06-20T06:28:28.008Z,38.13
2019-06-20T06:30:59.219Z,41.33
2019-06-20T06:33:30.625Z,38.45
2019-06-20T06:36:02.997Z,39.85
2019-06-20T06:38:35.110Z,42.93
2019-06-20T06:41:04.615Z,45.58
2019-06-20T06:43:34.066Z,42.15
2019-06-20T06:46:03.405Z,37.05
2019-06-20T06:48:36.734Z,42.60
2019-06-20T06:51:05.286Z,39.35
2019-06-20T06:53:46.969Z,41.10
2019-06-20T06:56:26.706Z,43.23
2019-06-20T06:58:56.047Z,39.80
2019-06-20T07:01:25.685Z,45.35
2019-06-20T07:03:56.738Z,39.90
2019-06-20T07:06:27.049Z,40.58
2019-06-20T07:08:57.933Z,39.63
2019-06-20T07:11:27.248Z,35.03
2019-06-20T07:13:56.578Z,36.98
2019-06-20T07:16:28.598Z,34.48
2019-06-20T07:18:57.924Z,34.88
2019-06-20T07:21:27.419Z,35.65
2019-06-20T07:23:58.380Z,35.23
2019-06-20T07:26:29.994Z,39.40
2019-06-20T07:28:59.362Z,37.40
2019-06-20T07:31:28.711Z,34.13
2019-06-20T07:34:01.222Z,36.45
2019-06-20T07:36:31.629Z,36.98
2019-06-20T07:39:00.945Z,36.58
2019-06-20T07:41:31.889Z,37.23
2019-06-20T07:44:01.215Z,31.57
2019-06-20T07:46:30.545Z,30.35
2019-06-20T07:49:01.183Z,31.50
2019-06-20T07:51:30.467Z,29.10
2019-06-20T07:53:59.813Z,24.00
2019-06-20T07:56:30.761Z,24.37
2019-06-20T07:59:00.087Z,28.45
2019-06-20T08:01:30.815Z,24.20
2019-06-20T08:04:00.188Z,27.17
2019-06-20T08:06:37.972Z,24.77
2019-06-20T08:09:22.245Z,23.00
2019-06-20T08:12:10.339Z,25.08
2019-06-20T08:14:42.580Z,22.05
2019-06-20T08:17:13.491Z,22.30
2019-06-20T08:19:49.665Z,20.80
2019-06-20T08:22:32.830Z,20.90
2019-06-20T08:25:03.281Z,18.90
2019-06-20T08:28:04.925Z,21.40
2019-06-20T08:30:38.359Z,22.00
2019-06-20T08:33:11.839Z,23.75
2019-06-20T08:35:48.726Z,19.05
2019-06-20T08:38:27.071Z,19.80
2019-06-20T08:41:00.218Z,23.95
2019-06-20T08:43:57.092Z,22.52
2019-06-20T08:47:38.109Z,21.90
2019-06-20T08:49:59.743Z,21.30
2019-06-20T08:52:41.455Z,27.62
2019-06-20T08:58:36.564Z,24.63
2019-06-20T09:01:36.905Z,22.95
2019-06-20T09:04:27.535Z,23.05
2019-06-20T09:06:59.177Z,23.85
2019-06-20T09:09:29.513Z,22.27
2019-06-20T09:24:28.193Z,24.37
2019-06-20T09:27:21.157Z,25.40
2019-06-20T09:28:14.788Z,21.40
2019-06-20T09:29:54.523Z,23.40
2019-06-20T09:36:33.482Z,23.85
2019-06-20T09:39:11.744Z,26.48
2019-06-20T09:42:09.598Z,20.90
2019-06-20T09:44:52.634Z,23.95
2019-06-20T09:56:59.475Z,24.23
2019-06-20T10:02:26.977Z,25.35
2019-06-20T10:03:05.440Z,22.35
2019-06-20T10:04:58.277Z,21.23
2019-06-20T10:11:03.776Z,23.27
2019-06-20T10:14:04.636Z,25.70
2019-06-20T10:22:54.630Z,29.92
2019-06-20T10:25:51.523Z,29.65
2019-06-20T10:28:46.300Z,30.95
2019-06-20T10:34:39.768Z,22.90
2019-06-20T10:37:04.970Z,23.10
2019-06-20T10:40:09.991Z,25.40
2019-06-20T10:43:14.543Z,24.30
2019-06-20T10:45:45.816Z,21.90
2019-06-20T10:48:20.989Z,19.25
2019-06-20T11:00:32.681Z,21.70
2019-06-20T11:03:06.524Z,21.52
2019-06-20T11:05:42.294Z,26.57
2019-06-20T11:08:22.961Z,24.87
2019-06-20T11:10:52.347Z,23.80
2019-06-20T11:13:23.316Z,25.25
2019-06-20T11:16:01.554Z,23.27
2019-06-20T11:18:38.290Z,19.50
2019-06-20T11:27:03.203Z,19.82
2019-06-20T11:33:00.769Z,21.48
2019-06-20T11:35:43.436Z,23.07
2019-06-20T11:38:21.927Z,24.35
2019-06-20T11:41:15.882Z,22.95
2019-06-20T11:44:08.451Z,17.85
2019-06-20T11:46:56.253Z,14.07
2019-06-20T11:49:27.562Z,16.05
2019-06-20T11:52:01.439Z,16.82
2019-06-20T11:57:52.188Z,15.55
2019-06-20T12:01:03.076Z,16.57
2019-06-20T12:03:27.220Z,16.80
2019-06-20T12:06:17.139Z,17.57
2019-06-20T12:08:49.149Z,17.02
2019-06-20T12:11:18.497Z,16.12
2019-06-20T12:13:48.571Z,18.90
2019-06-20T12:16:19.724Z,20.50
2019-06-20T12:19:18.801Z,20.02
2019-06-20T12:21:58.137Z,18.20
2019-06-20T12:24:41.656Z,15.60
2019-06-20T12:27:16.433Z,15.90
2019-06-20T12:39:51.648Z,12.68
2019-06-20T12:43:07.148Z,9.58
2019-06-20T12:45:40.052Z,12.25
2019-06-20T12:48:41.226Z,12.60
2019-06-20T12:51:14.036Z,11.12
2019-06-20T12:59:35.408Z,9.45
2019-06-20T13:02:09.304Z,9.53
2019-06-20T13:05:54.130Z,8.73
2019-06-20T13:11:07.723Z,8.63
2019-06-20T13:16:16.509Z,9.28
2019-06-20T13:18:46.290Z,9.68
2019-06-20T13:21:27.114Z,11.45
2019-06-20T13:23:56.670Z,11.00
2019-06-20T13:26:28.578Z,13.28
2019-06-20T13:29:04.037Z,14.43
2019-06-20T13:31:29.171Z,13.30
2019-06-20T13:33:58.561Z,12.93
2019-06-20T13:36:27.901Z,11.70
2019-06-20T13:38:58.328Z,11.65
2019-06-20T13:41:27.666Z,10.78
2019-06-20T13:43:56.973Z,18.92
2019-06-20T13:46:26.297Z,12.75
2019-06-20T13:48:55.637Z,13.58
2019-06-20T13:51:24.971Z,10.75
2019-06-20T13:53:54.362Z,13.03
2019-06-20T13:56:23.705Z,12.05
2019-06-20T13:58:54.141Z,10.43
2019-06-20T14:01:24.516Z,9.58
2019-06-20T14:03:53.821Z,8.70
2019-06-20T14:06:23.145Z,9.65
2019-06-20T14:08:52.468Z,9.65
2019-06-20T14:11:21.863Z,9.58
2019-06-20T14:13:53.036Z,9.25
2019-06-20T14:16:22.583Z,8.43
2019-06-20T14:18:52.378Z,10.58
2019-06-20T14:21:23.792Z,10.38
2019-06-20T14:23:53.886Z,13.30
2019-06-20T14:26:23.349Z,11.88
2019-06-20T14:28:52.669Z,13.10
2019-06-20T14:31:22.016Z,11.85
2019-06-20T14:33:51.414Z,14.15
2019-06-20T14:36:20.750Z,12.30
2019-06-20T14:38:51.480Z,12.70
2019-06-20T14:41:20.971Z,11.55
2019-06-20T14:43:51.701Z,12.60
2019-06-20T14:46:21.197Z,12.58
2019-06-20T14:48:50.525Z,11.12
2019-06-20T14:51:19.852Z,9.35
2019-06-20T14:53:49.430Z,9.83
2019-06-20T14:56:19.986Z,10.00
2019-06-20T14:58:49.293Z,9.13
2019-06-20T15:01:18.623Z,6.30
2019-06-20T15:03:49.053Z,8.88
2019-06-20T15:06:18.451Z,8.68
2019-06-20T15:08:49.197Z,7.10
2019-06-20T15:11:18.850Z,6.75
2019-06-20T15:13:49.328Z,8.30
2019-06-20T15:16:18.794Z,8.25
2019-06-20T15:18:50.206Z,8.45
2019-06-20T15:21:19.189Z,7.50
2019-06-20T15:23:49.508Z,6.78
2019-06-20T15:26:19.527Z,7.42
2019-06-20T15:28:49.752Z,6.08
2019-06-20T15:31:19.960Z,7.03
2019-06-20T15:33:51.492Z,8.23
2019-06-20T15:36:20.441Z,8.13
2019-06-20T15:38:50.993Z,7.25
2019-06-20T15:41:20.549Z,10.72
2019-06-20T15:43:49.989Z,6.58
2019-06-20T15:46:19.382Z,8.75
2019-06-20T15:48:48.768Z,8.45
2019-06-20T15:51:18.075Z,6.42
2019-06-20T15:53:47.430Z,6.17
2019-06-20T15:56:16.743Z,8.20
2019-06-20T15:58:46.060Z,8.23
2019-06-20T16:01:15.391Z,7.78
2019-06-20T16:03:44.723Z,7.55
2019-06-20T16:06:14.053Z,9.33
2019-06-20T16:08:43.389Z,8.60
2019-06-20T16:11:12.714Z,7.78
2019-06-20T16:13:42.061Z,7.53
2019-06-20T16:16:11.465Z,8.13
2019-06-20T16:18:40.840Z,9.80
2019-06-20T16:21:10.154Z,7.10
2019-06-20T16:23:39.475Z,10.10
2019-06-20T16:26:08.791Z,9.33
2019-06-20T16:28:38.105Z,9.98
2019-06-20T16:31:13.300Z,8.70
2019-06-20T16:33:41.071Z,7.55
2019-06-20T16:36:13.351Z,10.60
2019-06-20T16:38:42.699Z,8.85
2019-06-20T16:41:12.024Z,8.93
2019-06-20T16:59:01.850Z,7.35
2019-06-20T17:08:22.444Z,11.45
2019-06-20T17:10:51.830Z,9.43
2019-06-20T17:16:50.428Z,11.30
2019-06-20T17:21:51.042Z,9.78
2019-06-20T17:23:22.990Z,15.75
2019-06-20T17:26:08.725Z,11.73
2019-06-20T17:35:16.375Z,13.30
2019-06-20T17:41:27.959Z,11.10
2019-06-20T17:44:08.323Z,13.90
2019-06-20T17:46:46.044Z,12.58
2019-06-20T17:49:16.992Z,11.50
2019-06-20T17:51:49.299Z,8.40
2019-06-20T17:54:19.240Z,8.58
2019-06-20T18:00:00.448Z,6.33
2019-06-20T18:02:39.097Z,6.00
2019-06-20T18:05:24.333Z,8.80
2019-06-20T18:08:15.149Z,7.90
2019-06-20T18:10:46.700Z,7.20
2019-06-20T18:13:24.972Z,6.70
2019-06-20T18:16:24.109Z,6.45
2019-06-20T18:18:44.942Z,8.25
2019-06-20T18:21:21.713Z,6.65
2019-06-20T18:24:00.177Z,7.67
2019-06-20T18:26:37.416Z,5.12
2019-06-20T18:32:26.616Z,7.03
2019-06-20T18:35:27.827Z,6.30
2019-06-20T18:37:58.813Z,5.65
2019-06-20T18:40:28.202Z,5.17
2019-06-20T18:42:59.175Z,6.90
2019-06-20T18:48:54.313Z,7.42
2019-06-20T18:52:09.976Z,10.63
2019-06-20T18:54:50.146Z,6.85
2019-06-20T18:57:41.214Z,9.80
2019-06-20T19:17:53.173Z,11.85
2019-06-20T19:19:50.599Z,9.65
2019-06-20T19:22:44.693Z,11.55
2019-06-20T19:25:21.098Z,11.22
2019-06-20T19:27:56.309Z,13.48
2019-06-20T19:31:03.626Z,11.55
2019-06-20T19:33:52.016Z,14.47
2019-06-20T19:36:24.985Z,11.12
2019-06-20T19:39:07.451Z,12.88
2019-06-20T19:41:41.069Z,11.53
2019-06-20T19:44:14.696Z,10.08
2019-06-20T19:46:44.144Z,12.78
2019-06-20T19:49:14.438Z,11.88
2019-06-20T19:51:43.809Z,11.18
2019-06-20T19:54:19.366Z,13.28
2019-06-20T19:56:53.805Z,13.93
2019-06-20T19:59:23.222Z,13.05
2019-06-20T20:02:16.981Z,15.58
2019-06-20T20:04:50.941Z,12.00
2019-06-20T20:07:20.775Z,12.95
2019-06-20T20:10:08.115Z,10.80
2019-06-20T20:12:38.494Z,11.20
2019-06-20T20:21:37.465Z,12.20
2019-06-20T20:22:18.725Z,13.18
2019-06-20T20:24:09.666Z,12.55
2019-06-20T20:26:45.684Z,12.53
2019-06-20T20:29:21.978Z,11.93
2019-06-20T20:31:54.169Z,14.03
2019-06-20T20:35:34.852Z,11.73
2019-06-20T20:37:12.502Z,10.58
2019-06-20T20:39:50.344Z,9.73
2019-06-20T20:45:32.349Z,6.47
2019-06-20T20:48:04.313Z,4.80
2019-06-20T20:50:37.810Z,6.90
2019-06-20T20:53:19.177Z,5.78
2019-06-20T20:56:02.500Z,5.15
2019-06-20T20:58:26.136Z,6.22
2019-06-20T21:01:00.970Z,5.67
2019-06-20T21:03:36.919Z,6.05
2019-06-20T21:06:10.837Z,4.33
2019-06-20T21:08:44.984Z,5.80
2019-06-20T21:11:14.356Z,5.28
2019-06-20T21:13:43.717Z,3.75
2019-06-20T21:16:13.055Z,6.78
2019-06-20T21:18:42.372Z,4.47
2019-06-20T21:21:12.764Z,4.78
2019-06-20T21:23:54.413Z,4.78
2019-06-20T21:26:23.747Z,5.22
2019-06-20T21:29:17.010Z,8.28
2019-06-20T21:31:46.420Z,7.80
2019-06-20T21:34:15.739Z,5.85
2019-06-20T21:36:45.146Z,4.83
2019-06-20T21:39:24.809Z,5.35
2019-06-20T21:42:04.226Z,5.47
2019-06-20T21:44:32.157Z,5.95
2019-06-20T21:47:03.090Z,7.10
2019-06-20T21:49:32.407Z,7.58
2019-06-20T21:52:01.727Z,5.97
2019-06-20T21:54:31.046Z,5.70
2019-06-20T21:57:02.442Z,8.40
2019-06-20T21:59:37.191Z,7.10
2019-06-20T22:02:07.443Z,6.65
2019-06-20T22:04:36.780Z,6.42
2019-06-20T22:07:06.106Z,8.95
2019-06-20T22:09:35.693Z,9.65
2019-06-20T22:12:06.573Z,6.12
2019-06-20T22:14:35.954Z,5.70
2019-06-20T22:17:05.278Z,6.33
2019-06-20T22:19:34.586Z,6.35
2019-06-20T22:22:03.983Z,8.65
2019-06-20T22:24:33.307Z,6.37
2019-06-20T22:27:02.639Z,8.08
2019-06-20T22:29:31.949Z,7.22
2019-06-20T22:32:01.276Z,15.40
2019-06-20T22:34:30.592Z,7.37
2019-06-20T22:36:59.905Z,7.37
2019-06-20T22:39:29.237Z,7.42
2019-06-20T22:41:58.607Z,6.92
2019-06-20T22:44:27.910Z,7.37
2019-06-20T22:46:57.223Z,9.13
2019-06-20T22:49:26.563Z,8.13
2019-06-20T22:51:55.896Z,8.70
2019-06-20T22:54:25.221Z,9.38
2019-06-20T22:56:54.537Z,13.78
2019-06-20T22:59:23.879Z,10.80
2019-06-20T23:01:53.213Z,14.38
2019-06-20T23:04:22.543Z,10.85
2019-06-20T23:06:56.368Z,13.53
2019-06-20T23:09:22.961Z,11.90
2019-06-20T23:11:53.252Z,11.55
2019-06-20T23:14:22.621Z,15.20
2019-06-20T23:16:51.954Z,13.35
2019-06-20T23:19:21.331Z,9.98
2019-06-20T23:21:50.641Z,12.03
2019-06-20T23:24:19.961Z,14.75
2019-06-20T23:26:49.285Z,14.13
2019-06-20T23:29:22.231Z,14.53
2019-06-20T23:31:55.140Z,15.15
2019-06-20T23:34:24.462Z,16.62
2019-06-20T23:36:53.787Z,15.25
2019-06-20T23:39:24.066Z,15.03
2019-06-20T23:41:53.412Z,13.35
2019-06-20T23:44:24.331Z,14.07
2019-06-20T23:46:53.643Z,14.83
2019-06-20T23:49:22.996Z,13.10
2019-06-20T23:51:59.424Z,13.80
2019-06-20T23:54:28.741Z,14.87
2019-06-20T23:56:58.089Z,15.18
2019-06-20T23:59:28.364Z,12.28
